Time;durP1;ratioP1;P1;durP2;ratioP2;P2;SDS_P1;SDS_P2;PMS_P1;PMS_P2;Temp;Humidity;BMP_temperature;BMP_pressure;BME280_temperature;BME280_humidity;BME280_pressure;Samples;Min_cycle;Max_cycle;Signal;HPM_P1;HPM_P2
2022/10/18 00:00:05;;;;;;;17.35;7.45;;;;;;;19.77;70.38;100418.72;5104179;28;20413;-75
2022/10/18 00:02:32;;;;;;;18.05;8.32;;;;;;;19.72;70.62;100418.91;5101272;28;20143;-75
2022/10/18 00:04:58;;;;;;;17.75;7.72;;;;;;;19.62;70.55;100396.63;5103941;28;20312;-74
2022/10/18 00:07:25;;;;;;;23.10;7.22;;;;;;;19.70;70.43;100411.94;5097771;28;20051;-74
2022/10/18 00:09:52;;;;;;;12.95;6.65;;;;;;;19.37;70.59;100365.31;5104475;28;20130;-74
2022/10/18 00:12:19;;;;;;;20.80;8.15;;;;;;;19.59;70.65;100401.00;5102829;28;20510;-74
2022/10/18 00:14:49;;;;;;;10.30;5.25;;;;;;;19.57;70.66;100406.16;5088485;28;20040;-73
2022/10/18 00:17:16;;;;;;;13.05;5.60;;;;;;;19.38;70.74;100375.50;5105920;28;20498;-72
2022/10/18 00:19:43;;;;;;;8.07;5.68;;;;;;;19.32;70.46;100374.03;5105959;28;20046;-74
2022/10/18 00:22:10;;;;;;;9.60;6.22;;;;;;;19.50;70.31;100388.88;5106437;28;20051;-73
2022/10/18 00:24:37;;;;;;;17.13;7.65;;;;;;;19.33;70.23;100372.84;5098855;28;20056;-74
2022/10/18 00:27:04;;;;;;;15.57;7.03;;;;;;;19.38;70.20;100371.81;5100007;28;20055;-74
2022/10/18 00:29:30;;;;;;;15.98;7.22;;;;;;;19.40;70.07;100384.47;5099475;28;20043;-74
2022/10/18 00:31:57;;;;;;;11.98;6.45;;;;;;;19.49;70.09;100392.09;5099921;28;20100;-74
2022/10/18 00:34:24;;;;;;;13.88;7.85;;;;;;;19.48;70.23;100402.56;5083254;28;20044;-75
2022/10/18 00:36:51;;;;;;;18.55;13.68;;;;;;;19.26;70.34;100380.25;5106376;28;20402;-74
2022/10/18 00:39:19;;;;;;;16.80;15.13;;;;;;;19.16;70.47;100373.81;5101144;28;20051;-74
2022/10/18 00:41:47;;;;;;;25.23;16.38;;;;;;;19.28;70.53;100389.19;5099989;28;20051;-74
2022/10/18 00:44:14;;;;;;;20.42;16.75;;;;;;;19.21;70.68;100400.25;5101045;28;20044;-74
2022/10/18 00:46:43;;;;;;;17.63;15.13;;;;;;;19.08;70.71;100382.38;5097410;28;20051;-72
2022/10/18 00:49:14;;;;;;;17.80;16.20;;;;;;;19.08;71.37;100394.50;5101561;28;20496;-74
2022/10/18 00:51:45;;;;;;;19.42;14.13;;;;;;;18.97;70.96;100375.41;5098491;28;20051;-73
2022/10/18 00:54:15;;;;;;;21.05;15.65;;;;;;;19.09;71.07;100390.50;5101580;28;20047;-73
2022/10/18 00:56:43;;;;;;;16.45;13.93;;;;;;;18.99;70.87;100373.09;5104612;28;20520;-74
2022/10/18 00:59:13;;;;;;;19.95;15.63;;;;;;;19.04;71.18;100378.53;5110800;28;20405;-75
2022/10/18 01:01:40;;;;;;;18.15;14.50;;;;;;;19.03;71.31;100389.03;5112516;28;20486;-74
2022/10/18 01:04:07;;;;;;;17.92;13.85;;;;;;;19.00;71.43;100394.53;5101714;28;20070;-75
2022/10/18 01:06:50;;;;;;;19.02;14.50;;;;;;;18.94;71.58;100379.78;5107283;28;20055;-74
2022/10/18 01:09:23;;;;;;;15.68;12.52;;;;;;;18.92;71.39;100374.44;5108349;28;20120;-75
2022/10/18 01:11:52;;;;;;;12.88;11.57;;;;;;;18.97;71.47;100383.91;5111112;28;20048;-75
2022/10/18 01:14:33;;;;;;;17.85;12.15;;;;;;;18.95;71.52;100375.78;5107839;28;20051;-75
2022/10/18 01:17:06;;;;;;;14.63;13.15;;;;;;;18.87;71.23;100349.19;5107280;28;20421;-74
2022/10/18 01:20:00;;;;;;;14.40;13.07;;;;;;;19.05;71.41;100368.91;5103326;28;20143;-75
2022/10/18 01:22:42;;;;;;;15.88;14.00;;;;;;;19.16;70.83;100372.97;5107906;28;20195;-76
2022/10/18 01:26:08;;;;;;;17.63;16.15;;;;;;;19.21;70.86;100369.09;5110062;28;20056;-75
2022/10/18 01:28:51;;;;;;;13.45;12.25;;;;;;;19.21;70.83;100371.94;5060032;28;20052;-77
2022/10/18 01:31:22;;;;;;;13.52;12.43;;;;;;;19.13;70.64;100346.19;5051321;28;20045;-75
2022/10/18 01:33:57;;;;;;;15.55;13.65;;;;;;;19.16;70.37;100345.50;5092309;28;20059;-76
2022/10/18 01:36:39;;;;;;;13.05;11.95;;;;;;;19.27;70.35;100362.06;5105333;28;20131;-75
2022/10/18 01:39:10;;;;;;;16.58;12.27;;;;;;;19.40;70.04;100358.16;5107126;28;20052;-76
2022/10/18 01:41:40;;;;;;;12.45;11.15;;;;;;;19.50;69.86;100366.22;5110967;28;20050;-76
2022/10/18 01:44:11;;;;;;;12.50;11.32;;;;;;;19.63;69.66;100368.00;5108021;28;20510;-75
2022/10/18 01:46:40;;;;;;;12.60;11.30;;;;;;;19.70;69.48;100358.94;5108376;28;20055;-75
2022/10/18 01:49:07;;;;;;;15.07;11.80;;;;;;;19.92;69.30;100371.06;5105965;28;20050;-74
2022/10/18 01:51:34;;;;;;;12.20;11.02;;;;;;;19.93;68.91;100369.88;5104903;28;20048;-75
2022/10/18 01:54:01;;;;;;;12.68;11.43;;;;;;;19.89;68.87;100350.72;5104969;28;20058;-74
2022/10/18 01:56:40;;;;;;;15.27;10.95;;;;;;;20.09;68.86;100366.03;5105684;28;20052;-75
2022/10/18 01:59:13;;;;;;;10.83;9.83;;;;;;;20.15;68.75;100363.00;5107457;28;20050;-74
2022/10/18 02:01:52;;;;;;;11.75;10.63;;;;;;;20.21;68.54;100361.63;5106332;28;20044;-74
2022/10/18 02:04:29;;;;;;;11.50;10.00;;;;;;;20.25;68.31;100342.72;5109143;28;20056;-73
2022/10/18 02:07:11;;;;;;;13.50;12.25;;;;;;;20.25;68.30;100351.22;5111430;28;20302;-74
2022/10/18 02:09:45;;;;;;;12.43;10.63;;;;;;;20.28;67.80;100362.69;5108377;28;20043;-73
2022/10/18 02:12:14;;;;;;;16.30;9.80;;;;;;;19.93;67.77;100296.19;5119309;28;20056;-74
2022/10/18 02:14:44;;;;;;;11.38;10.07;;;;;;;20.34;67.79;100355.63;5128649;28;20048;-75
2022/10/18 02:17:11;;;;;;;;;;;;;;;20.23;67.63;100362.91;5127179;28;20131;-74
2022/10/18 02:19:43;;;;;;;11.80;10.80;;;;;;;20.26;67.43;100347.19;5125198;28;20407;-74
2022/10/18 02:22:11;;;;;;;13.82;12.40;;;;;;;20.35;67.48;100353.59;5109703;28;20052;-74
2022/10/18 02:24:43;;;;;;;12.15;11.15;;;;;;;20.36;67.27;100353.25;5104685;28;20055;-75
2022/10/18 02:27:11;;;;;;;11.70;10.38;;;;;;;20.33;67.22;100341.78;5110429;28;20066;-75
2022/10/18 02:29:40;;;;;;;13.93;10.98;;;;;;;20.30;67.41;100331.13;5108633;28;20044;-73
2022/10/18 02:32:18;;;;;;;19.87;13.43;;;;;;;20.39;67.18;100337.53;5105648;28;20502;-75
2022/10/18 02:34:52;;;;;;;11.52;10.35;;;;;;;20.42;67.09;100327.50;5106149;28;20048;-73
2022/10/18 02:37:19;;;;;;;12.10;10.35;;;;;;;20.36;67.22;100324.06;5106329;28;20050;-74
2022/10/18 02:39:49;;;;;;;11.95;10.60;;;;;;;20.43;66.83;100315.78;5108202;28;20047;-74
2022/10/18 02:42:16;;;;;;;13.98;10.35;;;;;;;20.28;66.90;100299.47;5104209;28;20052;-72
2022/10/18 02:44:44;;;;;;;14.60;10.05;;;;;;;20.35;66.68;100305.41;5099886;28;20079;-73
2022/10/18 02:47:11;;;;;;;18.25;11.48;;;;;;;20.35;66.43;100313.91;5100870;28;20052;-74
2022/10/18 02:49:38;;;;;;;14.65;11.68;;;;;;;20.34;66.38;100315.91;5103883;28;20051;-74
2022/10/18 02:52:05;;;;;;;17.20;11.02;;;;;;;20.13;66.45;100281.13;5102707;28;20060;-73
2022/10/18 02:54:32;;;;;;;17.25;10.95;;;;;;;20.21;66.47;100290.72;5104492;28;20043;-74
2022/10/18 02:56:59;;;;;;;16.33;11.70;;;;;;;20.27;66.44;100315.66;5101619;28;20048;-74
2022/10/18 02:59:26;;;;;;;15.23;11.95;;;;;;;20.19;66.07;100310.09;5101773;28;20054;-74
2022/10/18 03:01:53;;;;;;;15.50;10.90;;;;;;;20.12;66.42;100288.81;5108872;28;20063;-75
2022/10/18 03:04:20;;;;;;;13.32;12.02;;;;;;;20.21;66.61;100304.91;5099518;28;21335;-74
2022/10/18 03:06:46;;;;;;;15.68;10.95;;;;;;;19.97;66.54;100252.66;5105267;28;20143;-75
2022/10/18 03:09:13;;;;;;;10.45;9.57;;;;;;;20.29;66.81;100298.28;5107768;28;20052;-73
2022/10/18 03:11:40;;;;;;;13.30;11.98;;;;;;;20.33;66.65;100290.72;5108039;28;20054;-74
2022/10/18 03:14:07;;;;;;;13.68;11.15;;;;;;;20.46;66.81;100295.22;5109655;28;20055;-74
2022/10/18 03:16:33;;;;;;;12.32;11.27;;;;;;;20.46;66.63;100288.72;5100942;28;20054;-75
2022/10/18 03:19:00;;;;;;;13.50;10.90;;;;;;;20.38;66.80;100270.66;5105032;28;20071;-74
2022/10/18 03:21:27;;;;;;;14.00;10.90;;;;;;;20.38;66.42;100284.00;5097937;28;20052;-75
2022/10/18 03:23:54;;;;;;;11.48;10.38;;;;;;;20.39;66.30;100291.34;5103451;28;20410;-73
2022/10/18 03:26:21;;;;;;;12.85;11.60;;;;;;;20.37;66.31;100277.50;5104710;28;20048;-74
2022/10/18 03:28:48;;;;;;;13.48;11.95;;;;;;;20.37;66.32;100288.84;5107469;28;20048;-74
2022/10/18 03:31:15;;;;;;;19.83;11.95;;;;;;;20.30;66.39;100280.91;5106256;28;20470;-76
2022/10/18 03:33:42;;;;;;;12.52;11.43;;;;;;;20.29;66.28;100278.44;5105501;28;20044;-75
2022/10/18 03:36:08;;;;;;;12.75;11.60;;;;;;;20.30;66.11;100285.75;5099776;27;20048;-75
2022/10/18 03:38:35;;;;;;;15.00;11.65;;;;;;;20.15;65.99;100267.44;5102686;28;20052;-75
2022/10/18 03:41:02;;;;;;;11.35;10.45;;;;;;;20.17;66.02;100276.44;5104605;28;20496;-75
2022/10/18 03:43:29;;;;;;;13.05;11.70;;;;;;;19.99;66.18;100258.78;5102919;28;20520;-75
2022/10/18 03:45:56;;;;;;;14.98;12.30;;;;;;;19.95;66.36;100252.16;5111126;28;20406;-74
2022/10/18 03:48:23;;;;;;;12.48;11.57;;;;;;;19.97;66.39;100274.50;5102429;27;20047;-76
2022/10/18 03:50:50;;;;;;;13.93;12.60;;;;;;;19.80;66.43;100250.00;5104323;28;20457;-76
2022/10/18 03:53:17;;;;;;;11.80;10.80;;;;;;;19.79;66.33;100268.19;5100892;28;20044;-76
2022/10/18 03:55:48;;;;;;;13.70;11.50;;;;;;;19.81;66.35;100274.34;5104650;28;20049;-76
2022/10/18 03:58:15;;;;;;;10.80;10.02;;;;;;;19.61;66.56;100259.81;5107012;28;20544;-76
2022/10/18 04:00:42;;;;;;;12.00;11.18;;;;;;;19.68;66.30;100252.81;5108926;28;20055;-74
2022/10/18 04:03:09;;;;;;;11.43;10.43;;;;;;;19.58;66.50;100265.34;5105987;28;20134;-73
2022/10/18 04:05:36;;;;;;;13.02;11.65;;;;;;;19.59;66.28;100270.69;5101790;28;20070;-73
2022/10/18 04:08:03;;;;;;;12.15;11.25;;;;;;;19.56;66.07;100279.06;5101080;28;20058;-78
2022/10/18 04:10:30;;;;;;;11.68;10.60;;;;;;;19.48;66.24;100263.78;5104425;28;20047;-75
2022/10/18 04:12:56;;;;;;;18.25;12.70;;;;;;;19.49;66.26;100279.63;5107949;28;20047;-74
2022/10/18 04:15:23;;;;;;;11.60;10.48;;;;;;;19.58;65.99;100269.00;5110424;28;21178;-75
2022/10/18 04:17:50;;;;;;;11.40;10.48;;;;;;;19.60;65.96;100269.50;5114353;28;20066;-74
2022/10/18 04:20:17;;;;;;;13.35;11.05;;;;;;;19.58;65.72;100263.34;5119626;28;20035;-74
2022/10/18 04:22:44;;;;;;;17.63;10.90;;;;;;;19.43;65.87;100275.34;5118888;28;20051;-75
2022/10/18 04:25:11;;;;;;;11.20;10.30;;;;;;;19.28;65.84;100261.81;5115452;28;20058;-75
2022/10/18 04:27:38;;;;;;;12.45;11.15;;;;;;;19.28;65.54;100256.13;5108986;28;20048;-75
2022/10/18 04:30:05;;;;;;;11.23;10.18;;;;;;;19.35;65.42;100257.25;5086820;28;20051;-75
2022/10/18 04:32:34;;;;;;;12.45;11.07;;;;;;;19.51;65.27;100282.91;5106082;28;20514;-73
2022/10/18 04:35:01;;;;;;;11.80;9.90;;;;;;;19.49;65.25;100279.63;5101835;28;20069;-73
2022/10/18 04:37:28;;;;;;;21.30;9.98;;;;;;;19.40;64.73;100276.03;5107469;28;20062;-76
2022/10/18 04:39:56;;;;;;;18.42;11.32;;;;;;;19.67;64.61;100282.31;5102130;28;20048;-74
2022/10/18 04:42:23;;;;;;;16.40;9.82;;;;;;;19.77;64.37;100298.88;5107741;28;20070;-75
2022/10/18 04:44:50;;;;;;;13.30;10.48;;;;;;;19.61;64.31;100268.31;5105404;28;20058;-75
2022/10/18 04:47:16;;;;;;;10.98;10.05;;;;;;;19.91;64.07;100290.88;5103766;28;20055;-75
2022/10/18 04:49:43;;;;;;;12.07;9.35;;;;;;;19.96;63.78;100296.31;5101319;28;20064;-75
2022/10/18 04:52:10;;;;;;;10.48;9.43;;;;;;;20.06;63.20;100293.03;5101400;28;20055;-74
2022/10/18 04:54:37;;;;;;;12.38;9.95;;;;;;;20.10;62.96;100294.00;5105783;28;20125;-75
2022/10/18 04:57:04;;;;;;;12.95;9.80;;;;;;;20.06;62.52;100287.38;5106855;28;20050;-74
2022/10/18 04:59:31;;;;;;;13.57;10.23;;;;;;;20.19;62.62;100284.56;5107148;28;20043;-75
2022/10/18 05:01:58;;;;;;;12.13;8.88;;;;;;;20.25;62.53;100292.50;5097659;28;20045;-75
2022/10/18 05:04:25;;;;;;;10.95;9.95;;;;;;;20.23;62.37;100286.34;5099305;28;20052;-74
2022/10/18 05:06:51;;;;;;;15.70;9.95;;;;;;;20.17;62.21;100279.25;5106312;28;20074;-75
2022/10/18 05:09:21;;;;;;;10.15;9.32;;;;;;;20.21;62.09;100271.72;5098897;28;20051;-75
2022/10/18 05:11:47;;;;;;;11.85;10.45;;;;;;;20.24;61.84;100270.16;5104650;28;20044;-73
2022/10/18 05:14:14;;;;;;;16.92;9.80;;;;;;;20.36;61.74;100292.84;5104793;28;20410;-73
2022/10/18 05:16:41;;;;;;;11.45;9.23;;;;;;;20.36;61.82;100284.34;5105869;28;20056;-75
2022/10/18 05:19:08;;;;;;;15.07;9.23;;;;;;;20.30;61.68;100285.75;5096447;27;20055;-74
2022/10/18 05:21:35;;;;;;;12.93;9.15;;;;;;;20.29;61.20;100281.28;5100937;28;21244;-76
2022/10/18 05:24:02;;;;;;;15.57;9.95;;;;;;;20.26;61.00;100276.31;5107291;28;20484;-75
2022/10/18 05:26:29;;;;;;;11.48;10.38;;;;;;;20.26;61.16;100279.97;5105494;28;20058;-74
2022/10/18 05:28:56;;;;;;;11.40;10.40;;;;;;;20.23;61.10;100269.31;5110725;28;20047;-74
2022/10/18 05:31:23;;;;;;;9.60;8.73;;;;;;;20.29;61.30;100278.44;5099537;28;20493;-75
2022/10/18 05:33:49;;;;;;;12.98;9.60;;;;;;;20.41;61.28;100292.66;5100377;28;20063;-76
2022/10/18 05:36:16;;;;;;;10.13;9.23;;;;;;;20.41;61.03;100294.63;5100105;28;20058;-83
2022/10/18 05:38:46;;;;;;;12.32;10.18;;;;;;;20.35;60.80;100277.03;5099029;28;20047;-78
2022/10/18 05:41:13;;;;;;;11.80;10.65;;;;;;;20.50;60.75;100296.22;5104363;28;20035;-78
2022/10/18 05:43:40;;;;;;;14.30;10.93;;;;;;;20.41;60.90;100298.31;5104091;28;20047;-78
2022/10/18 05:46:08;;;;;;;10.70;9.90;;;;;;;20.51;60.59;100303.56;5106255;28;20399;-80
2022/10/18 05:48:42;;;;;;;13.52;10.57;;;;;;;20.22;60.63;100236.50;5107296;28;20158;-81
2022/10/18 05:51:10;;;;;;;13.73;10.60;;;;;;;20.57;60.82;100307.78;5120101;27;20472;-82
2022/10/18 05:53:36;;;;;;;12.38;10.98;;;;;;;20.35;60.79;100265.69;5103144;28;20054;-81
2022/10/18 05:56:05;;;;;;;12.27;11.13;;;;;;;20.47;60.97;100291.19;5099775;28;20418;-78
2022/10/18 05:58:32;;;;;;;11.90;10.32;;;;;;;20.52;60.67;100298.69;5103119;28;20056;-80
2022/10/18 06:01:04;;;;;;;11.68;10.55;;;;;;;20.53;60.61;100301.16;5102666;28;20048;-79
2022/10/18 06:03:31;;;;;;;12.68;9.98;;;;;;;20.44;60.47;100289.06;5102420;28;20051;-78
2022/10/18 06:06:05;;;;;;;16.15;11.52;;;;;;;20.33;60.93;100280.19;5099535;28;20040;-77
2022/10/18 06:08:32;;;;;;;11.57;10.52;;;;;;;20.54;60.78;100319.84;5090425;28;20646;-77
2022/10/18 06:11:06;;;;;;;11.30;10.10;;;;;;;20.48;60.54;100307.06;5099473;28;20501;-76
2022/10/18 06:13:33;;;;;;;11.80;10.60;;;;;;;20.37;60.48;100291.66;5104041;28;20051;-77
2022/10/18 06:15:59;;;;;;;12.02;9.88;;;;;;;20.26;60.94;100281.97;5100798;28;20421;-77
2022/10/18 06:18:26;;;;;;;14.57;13.07;;;;;;;20.39;60.96;100311.19;5101971;28;20059;-77
2022/10/18 06:20:57;;;;;;;12.27;9.85;;;;;;;20.39;60.95;100309.19;5101040;28;20071;-77
2022/10/18 06:23:28;;;;;;;10.95;10.10;;;;;;;19.51;60.97;100192.28;5101679;28;20055;-77
2022/10/18 06:26:02;;;;;;;11.18;10.32;;;;;;;20.40;60.98;100319.31;5104291;28;20052;-77
2022/10/18 06:28:29;;;;;;;12.05;10.88;;;;;;;20.35;60.97;100313.91;5104120;28;20058;-77
2022/10/18 06:30:57;;;;;;;9.95;9.05;;;;;;;20.33;61.23;100314.22;5105880;28;20050;-77
2022/10/18 06:33:25;;;;;;;10.27;9.40;;;;;;;20.27;61.16;100309.16;5103895;28;20058;-78
2022/10/18 06:35:57;;;;;;;11.48;9.80;;;;;;;20.16;61.18;100300.28;5105043;28;20431;-78
2022/10/18 06:38:25;;;;;;;13.85;10.20;;;;;;;20.22;61.06;100315.06;5101869;27;20052;-77
2022/10/18 06:40:53;;;;;;;11.70;10.50;;;;;;;20.25;61.02;100283.16;5107680;28;20063;-78
2022/10/18 06:43:20;;;;;;;13.35;12.20;;;;;;;20.13;61.53;100310.28;5096254;28;20052;-81
2022/10/18 06:45:48;;;;;;;13.63;12.18;;;;;;;20.13;61.65;100304.63;5098229;28;20056;-79
2022/10/18 06:48:16;;;;;;;14.27;12.90;;;;;;;20.17;61.65;100315.25;5099193;28;20044;-79
2022/10/18 06:50:57;;;;;;;13.15;10.15;;;;;;;20.06;61.70;100310.03;5103338;28;20047;-80
2022/10/18 06:53:29;;;;;;;13.02;11.73;;;;;;;20.04;61.76;100309.59;5097638;28;20059;-78
2022/10/18 06:56:00;;;;;;;15.13;12.05;;;;;;;19.98;61.76;100301.66;5104588;28;20064;-79
2022/10/18 06:58:28;;;;;;;11.13;9.82;;;;;;;20.06;61.82;100315.72;5106374;28;20043;-79
2022/10/18 07:00:56;;;;;;;13.30;11.10;;;;;;;19.88;62.07;100319.94;5102424;28;20535;-79
2022/10/18 07:03:22;;;;;;;13.77;12.60;;;;;;;19.95;62.31;100323.00;5107790;28;20044;-82
2022/10/18 07:05:49;;;;;;;10.77;9.98;;;;;;;19.75;62.51;100321.06;5103018;28;20052;-78
2022/10/18 07:08:17;;;;;;;10.02;9.10;;;;;;;19.77;62.63;100325.19;5107482;28;20047;-79
2022/10/18 07:10:51;;;;;;;11.13;9.75;;;;;;;19.75;62.81;100332.38;5099867;28;20044;-78
2022/10/18 07:13:19;;;;;;;12.30;10.52;;;;;;;19.65;62.97;100333.63;5111533;28;20043;-79
2022/10/18 07:16:13;;;;;;;14.02;12.75;;;;;;;19.50;63.12;100320.09;5102798;28;20061;-78
2022/10/18 07:18:49;;;;;;;12.35;11.23;;;;;;;19.63;63.35;100341.66;5104087;28;20086;-79
2022/10/18 07:21:19;;;;;;;15.95;12.73;;;;;;;19.47;63.86;100324.44;5106549;28;20048;-79
2022/10/18 07:23:46;;;;;;;11.95;10.23;;;;;;;19.52;63.46;100341.25;5105024;28;20426;-79
2022/10/18 07:26:20;;;;;;;11.35;10.55;;;;;;;19.77;63.62;100375.38;5107865;28;20055;-79
2022/10/18 07:28:54;;;;;;;12.68;10.70;;;;;;;19.80;63.58;100344.34;5112701;28;20043;-79
2022/10/18 07:31:22;;;;;;;13.07;12.07;;;;;;;19.70;63.58;100347.59;5101540;28;20441;-78
2022/10/18 07:33:49;;;;;;;22.95;12.82;;;;;;;19.86;63.43;100361.94;5104208;28;20054;-79
2022/10/18 07:36:16;;;;;;;14.30;12.90;;;;;;;20.09;63.12;100363.22;5110044;28;20058;-78
2022/10/18 07:38:43;;;;;;;14.20;13.30;;;;;;;20.00;62.97;100339.81;5103877;28;20047;-77
2022/10/18 07:41:11;;;;;;;10.48;3.80;;;;;;;20.21;62.79;100367.28;5098706;27;20047;-79
2022/10/18 07:43:50;;;;;;;21.73;2.38;;;;;;;20.24;62.53;100372.22;5104174;28;20056;-80
2022/10/18 07:46:18;;;;;;;13.65;12.18;;;;;;;20.34;62.62;100361.28;5104258;28;20048;-80
2022/10/18 07:48:45;;;;;;;14.82;11.48;;;;;;;20.41;62.34;100369.22;5103244;28;20063;-79
2022/10/18 07:51:13;;;;;;;11.02;9.93;;;;;;;20.44;62.20;100371.31;5105188;28;20623;-80
2022/10/18 07:53:40;;;;;;;11.88;10.80;;;;;;;20.57;61.85;100397.75;5111419;28;20043;-80
2022/10/18 07:56:14;;;;;;;16.35;11.57;;;;;;;20.62;61.41;100368.34;5104683;28;20051;-79
2022/10/18 07:58:46;;;;;;;12.32;11.10;;;;;;;20.74;61.71;100402.38;5105919;28;20052;-79
2022/10/18 08:01:14;;;;;;;7.05;3.65;;;;;;;20.91;61.50;100410.66;5094022;28;20044;-79
2022/10/18 08:03:42;;;;;;;5.30;2.92;;;;;;;20.96;61.34;100410.47;5095553;28;20056;-78
2022/10/18 08:06:10;;;;;;;11.80;4.57;;;;;;;21.01;61.58;100404.53;5102517;28;20104;-78
2022/10/18 08:08:38;;;;;;;10.05;4.18;;;;;;;21.05;61.62;100405.47;5103859;28;20096;-78
2022/10/18 08:11:09;;;;;;;7.70;3.42;;;;;;;21.01;61.30;100383.84;5104343;28;20039;-78
2022/10/18 08:13:36;;;;;;;9.45;4.05;;;;;;;21.28;61.23;100427.72;5098736;28;20497;-78
2022/10/18 08:16:08;;;;;;;17.25;4.85;;;;;;;21.25;61.39;100426.41;5103537;28;20513;-79
2022/10/18 08:18:36;;;;;;;12.52;10.40;;;;;;;21.11;61.09;100428.78;5101988;28;20819;-77
2022/10/18 08:21:05;;;;;;;12.43;11.32;;;;;;;20.89;61.85;100400.84;5100960;28;20475;-78
2022/10/18 08:23:32;;;;;;;13.48;11.20;;;;;;;20.57;61.92;100392.06;5101336;28;20056;-79
2022/10/18 08:26:01;;;;;;;10.55;3.40;;;;;;;20.72;62.09;100444.50;5103174;28;20047;-78
2022/10/18 08:28:28;;;;;;;9.95;3.60;;;;;;;20.67;62.29;100437.00;5107891;27;20043;-79
2022/10/18 08:30:55;;;;;;;11.68;10.68;;;;;;;20.81;61.94;100445.19;5103440;28;20119;-79
2022/10/18 08:33:22;;;;;;;11.02;10.07;;;;;;;20.83;61.53;100440.84;5100681;28;20521;-78
2022/10/18 08:35:57;;;;;;;13.77;10.05;;;;;;;20.56;61.89;100427.31;5102109;27;20047;-79
2022/10/18 08:38:24;;;;;;;14.40;11.38;;;;;;;20.93;61.66;100459.41;5102290;28;20068;-79
2022/10/18 08:40:51;;;;;;;11.30;9.68;;;;;;;21.06;61.41;100492.31;5095807;28;20104;-80
2022/10/18 08:43:27;;;;;;;6.78;3.17;;;;;;;21.20;61.12;100462.75;5103355;28;20058;-77
2022/10/18 08:45:54;;;;;;;11.70;10.77;;;;;;;21.23;60.80;100464.84;5103855;28;20700;-78
2022/10/18 08:48:29;;;;;;;10.85;8.32;;;;;;;21.22;60.70;100468.88;5119851;28;20067;-79
2022/10/18 08:50:57;;;;;;;14.25;4.38;;;;;;;21.37;60.17;100482.44;5113025;28;20058;-78
2022/10/18 08:53:35;;;;;;;2.38;1.63;;;;;;;21.31;60.04;100461.09;5123194;28;20058;-79
2022/10/18 08:56:13;;;;;;;5.20;2.83;;;;;;;21.34;60.11;100487.97;5102861;28;20108;-79
2022/10/18 08:58:45;;;;;;;13.48;12.48;;;;;;;21.11;60.51;100473.38;5100776;28;20451;-77
2022/10/18 09:01:30;;;;;;;11.75;9.73;;;;;;;21.24;60.32;100503.47;5096545;28;20609;-77
2022/10/18 09:04:18;;;;;;;14.13;7.85;;;;;;;21.22;60.56;100498.13;5100413;28;20556;-77
2022/10/18 09:07:25;;;;;;;12.48;10.75;;;;;;;21.29;60.03;100498.34;5097750;28;20540;-78
2022/10/18 09:10:03;;;;;;;12.00;10.68;;;;;;;21.13;60.51;100505.94;5088090;28;20059;-78
2022/10/18 09:13:02;;;;;;;11.07;9.80;;;;;;;21.32;60.29;100501.69;5095007;28;20093;-79
2022/10/18 09:15:43;;;;;;;9.73;4.82;;;;;;;21.56;59.64;100498.84;5073590;28;20055;-78
2022/10/18 09:18:36;;;;;;;12.18;3.80;;;;;;;21.93;59.22;100511.00;5101202;28;20064;-77
2022/10/18 09:21:40;;;;;;;12.10;4.07;;;;;;;22.28;58.22;100515.31;5102674;28;20430;-79
2022/10/18 09:24:33;;;;;;;9.45;3.13;;;;;;;22.67;57.20;100482.31;5101796;28;20051;-78
2022/10/18 09:27:13;;;;;;;3.90;2.85;;;;;;;22.86;56.54;100479.56;5094233;27;20067;-79
2022/10/18 09:29:58;;;;;;;9.70;3.30;;;;;;;23.26;55.73;100492.88;5105647;28;20056;-78
2022/10/18 09:32:54;;;;;;;8.52;2.95;;;;;;;23.54;54.85;100492.75;5101382;28;20057;-79
2022/10/18 09:35:26;;;;;;;3.45;2.42;;;;;;;23.89;54.66;100487.06;5103199;28;20051;-78
2022/10/18 09:38:01;;;;;;;10.77;5.60;;;;;;;23.91;53.20;100505.84;5101066;28;20056;-81
2022/10/18 09:40:35;;;;;;;11.32;10.00;;;;;;;24.05;53.04;100489.06;5100976;28;20055;-76
2022/10/18 09:43:10;;;;;;;9.50;8.65;;;;;;;24.21;53.07;100469.84;5101549;28;20076;-78
2022/10/18 09:45:43;;;;;;;13.13;12.20;;;;;;;24.44;52.38;100471.97;5106799;28;20054;-79
2022/10/18 09:48:26;;;;;;;10.40;9.50;;;;;;;24.35;52.34;100487.28;5091036;28;20055;-80
2022/10/18 09:51:20;;;;;;;27.48;5.10;;;;;;;24.49;51.74;100494.50;5098922;28;20048;-79
2022/10/18 09:53:56;;;;;;;12.25;11.35;;;;;;;24.65;51.35;100477.28;5105310;28;20047;-78
2022/10/18 09:56:31;;;;;;;12.18;11.07;;;;;;;24.80;50.88;100497.16;5102970;28;20402;-79
2022/10/18 09:59:14;;;;;;;11.68;10.70;;;;;;;24.79;50.36;100484.09;5105346;28;20055;-78
2022/10/18 10:01:41;;;;;;;15.30;12.27;;;;;;;24.65;51.02;100488.69;5100441;28;20398;-79
2022/10/18 10:04:08;;;;;;;14.65;11.38;;;;;;;24.74;50.25;100492.97;5103036;28;20044;-75
2022/10/18 10:06:37;;;;;;;10.25;9.43;;;;;;;24.26;50.72;100511.53;5105437;28;20051;-74
2022/10/18 10:09:15;;;;;;;12.63;11.43;;;;;;;23.92;51.05;100461.88;5104301;28;20055;-75
2022/10/18 10:11:50;;;;;;;10.80;10.07;;;;;;;24.03;51.51;100468.63;5108425;28;20048;-81
2022/10/18 10:14:24;;;;;;;9.95;9.15;;;;;;;23.79;51.59;100499.06;5098140;28;20497;-80
2022/10/18 10:17:20;;;;;;;12.88;11.80;;;;;;;23.39;52.44;100485.88;5106403;28;20047;-80
2022/10/18 10:20:02;;;;;;;13.20;9.75;;;;;;;23.11;52.53;100477.44;5112204;28;20058;-81
2022/10/18 10:22:39;;;;;;;9.35;8.65;;;;;;;23.15;52.76;100497.47;5105816;28;20062;-80
2022/10/18 10:25:20;;;;;;;10.68;9.77;;;;;;;22.82;53.51;100460.75;5104719;28;20073;-79
2022/10/18 10:27:47;;;;;;;10.40;9.65;;;;;;;23.06;52.98;100446.38;5098331;28;20433;-80
2022/10/18 10:30:29;;;;;;;6.53;3.20;;;;;;;23.15;53.27;100497.47;5110024;28;20055;-82
2022/10/18 10:32:56;;;;;;;14.45;12.00;;;;;;;23.36;53.25;100511.44;5102166;28;20040;-78
2022/10/18 10:35:36;;;;;;;12.23;4.75;;;;;;;23.67;52.67;100524.00;5081210;28;20055;-79
2022/10/18 10:38:29;;;;;;;12.00;10.70;;;;;;;23.33;52.34;100497.91;5103498;28;20048;-80
2022/10/18 10:40:57;;;;;;;10.35;9.60;;;;;;;23.35;52.66;100496.38;5102505;28;20059;-75
2022/10/18 10:43:37;;;;;;;10.10;9.13;;;;;;;23.35;52.52;100532.56;5107891;27;20055;-75
2022/10/18 10:46:07;;;;;;;11.35;10.30;;;;;;;23.28;52.88;100533.22;5106807;28;20051;-74
2022/10/18 10:48:56;;;;;;;17.37;9.13;;;;;;;23.18;53.46;100522.38;5104762;28;20142;-75
2022/10/18 10:51:43;;;;;;;16.75;10.25;;;;;;;23.21;53.56;100518.75;5099356;28;20047;-73
2022/10/18 10:54:19;;;;;;;10.70;9.90;;;;;;;23.16;53.24;100527.59;5100494;28;20080;-74
2022/10/18 10:56:57;;;;;;;13.65;8.57;;;;;;;23.12;53.32;100503.91;5108393;28;20055;-75
2022/10/18 10:59:29;;;;;;;9.25;8.55;;;;;;;22.72;53.58;100433.66;5102757;28;20051;-75
2022/10/18 11:02:16;;;;;;;14.30;9.70;;;;;;;22.89;53.56;100487.41;5105646;28;20173;-74
2022/10/18 11:04:48;;;;;;;11.82;11.20;;;;;;;22.90;53.76;100479.66;5100192;28;20072;-74
2022/10/18 11:07:36;;;;;;;11.63;9.98;;;;;;;23.08;53.59;100488.75;5096467;28;20055;-74
2022/10/18 11:10:11;;;;;;;17.75;9.40;;;;;;;23.09;53.54;100496.91;5099507;28;20051;-74
2022/10/18 11:12:42;;;;;;;10.23;9.27;;;;;;;22.90;53.60;100503.28;5110686;28;20048;-76
2022/10/18 11:15:10;;;;;;;11.63;10.73;;;;;;;22.91;54.36;100510.66;5102571;28;20054;-74
2022/10/18 11:18:03;;;;;;;11.70;10.63;;;;;;;22.87;53.99;100478.41;5105165;28;20059;-74
2022/10/18 11:20:46;;;;;;;10.68;9.95;;;;;;;22.96;54.59;100514.44;5107522;28;20066;-74
2022/10/18 11:23:14;;;;;;;14.75;10.63;;;;;;;23.24;53.72;100506.63;5096809;28;20073;-73
2022/10/18 11:25:59;;;;;;;10.10;9.37;;;;;;;23.25;54.06;100514.00;5109503;28;20047;-76
2022/10/18 11:28:35;;;;;;;17.98;11.05;;;;;;;23.22;53.85;100516.78;5105801;28;20062;-75
2022/10/18 11:31:17;;;;;;;10.82;10.02;;;;;;;23.12;53.76;100516.13;5099655;28;20051;-75
2022/10/18 11:34:15;;;;;;;10.30;9.40;;;;;;;23.19;53.80;100512.63;5092975;28;20055;-75